Time;durP1;ratioP1;P1;durP2;ratioP2;P2;SDS_P1;SDS_P2;PMS_P1;PMS_P2;Temp;Humidity;BMP_temperature;BMP_pressure;BME280_temperature;BME280_humidity;BME280_pressure;Samples;Min_cycle;Max_cycle;Signal;HPM_P1;HPM_P2
2022/12/02 09:12:13;;;;;;;62.22;32.30;;;1.70;99.90;;;;;;4317006;26;20042;-51
2022/12/02 09:14:59;;;;;;;57.15;31.23;;;1.70;99.90;;;;;;4992528;28;20118;-51
2022/12/02 09:17:44;;;;;;;60.97;33.85;;;1.80;99.90;;;;;;4991997;28;20458;-56
2022/12/02 09:20:30;;;;;;;58.33;31.13;;;1.80;99.90;;;;;;4976616;28;20066;-51
2022/12/02 09:23:16;;;;;;;60.67;31.70;;;1.80;99.90;;;;;;4992028;28;20033;-51
2022/12/02 09:26:02;;;;;;;58.17;31.42;;;1.70;99.90;;;;;;4991907;28;20022;-53
2022/12/02 09:28:48;;;;;;;58.85;30.98;;;1.80;99.90;;;;;;4993092;28;20018;-54
2022/12/02 09:31:34;;;;;;;61.13;31.83;;;1.80;99.90;;;;;;5011516;28;20084;-57
2022/12/02 09:34:20;;;;;;;59.55;31.75;;;1.80;99.90;;;;;;5006660;28;20031;-55
2022/12/02 09:37:06;;;;;;;57.33;30.63;;;1.80;99.90;;;;;;4992665;28;20034;-52
2022/12/02 09:39:52;;;;;;;60.30;31.33;;;1.80;99.90;;;;;;4991090;28;20117;-54
2022/12/02 09:42:38;;;;;;;58.55;31.25;;;1.80;99.90;;;;;;4990943;28;20031;-53
2022/12/02 09:45:24;;;;;;;60.40;33.08;;;1.80;99.90;;;;;;4991677;28;20049;-57
2022/12/02 09:48:11;;;;;;;61.63;30.77;;;1.80;99.90;;;;;;4991217;28;20034;-54
2022/12/02 09:50:59;;;;;;;54.15;31.00;;;1.90;99.90;;;;;;4992489;28;20069;-53
2022/12/02 09:53:47;;;;;;;63.55;32.33;;;1.80;99.90;;;;;;4993056;28;20054;-57
2022/12/02 09:56:34;;;;;;;59.47;30.65;;;1.80;99.90;;;;;;4991809;28;20023;-52
2022/12/02 09:59:21;;;;;;;59.55;32.47;;;1.90;99.90;;;;;;4991570;28;20566;-54
2022/12/02 10:02:29;;;;;;;59.58;32.17;;;1.90;99.90;;;;;;4990986;28;20050;-56
2022/12/02 10:05:24;;;;;;;60.80;33.33;;;1.90;99.90;;;;;;4991126;28;20062;-53
2022/12/02 10:08:16;;;;;;;55.60;30.70;;;1.90;99.90;;;;;;4992797;28;20491;-52
2022/12/02 10:11:03;;;;;;;57.55;30.65;;;1.90;99.90;;;;;;5004312;28;20030;-58
2022/12/02 10:13:50;;;;;;;64.90;34.90;;;1.90;99.90;;;;;;5009300;28;20026;-60
2022/12/02 10:16:37;;;;;;;64.90;34.78;;;1.90;99.90;;;;;;5007842;28;20411;-60
2022/12/02 10:19:23;;;;;;;59.33;32.30;;;1.90;99.90;;;;;;5009260;28;20022;-61
2022/12/02 10:22:18;;;;;;;59.65;31.63;;;1.90;99.90;;;;;;5009886;28;20523;-57
2022/12/02 10:25:04;;;;;;;60.00;32.05;;;1.90;99.90;;;;;;5009450;28;20014;-61
2022/12/02 10:27:50;;;;;;;57.45;31.83;;;1.80;99.90;;;;;;5011548;28;20445;-60
2022/12/02 10:30:37;;;;;;;60.95;32.70;;;1.80;99.90;;;;;;5011031;28;20042;-60
2022/12/02 10:33:28;;;;;;;59.60;32.45;;;1.90;99.90;;;;;;5013625;28;20020;-59
2022/12/02 10:36:27;;;;;;;58.55;30.15;;;1.90;99.90;;;;;;5000563;28;20060;-59
2022/12/02 10:39:20;;;;;;;56.83;31.02;;;1.90;99.90;;;;;;5014804;28;20557;-58
2022/12/02 10:42:16;;;;;;;55.25;31.00;;;1.90;99.90;;;;;;5011465;28;20021;-57
2022/12/02 10:45:23;;;;;;;56.17;32.05;;;1.90;99.90;;;;;;5011388;28;20046;-54
2022/12/02 10:48:18;;;;;;;59.55;30.80;;;1.90;99.90;;;;;;5012650;28;20117;-53
2022/12/02 10:51:04;;;;;;;64.50;30.95;;;1.80;99.90;;;;;;5010988;28;20379;-54
2022/12/02 10:53:56;;;;;;;56.17;30.67;;;1.80;99.90;;;;;;4998605;28;20042;-57
2022/12/02 10:56:41;;;;;;;59.70;31.75;;;1.90;99.90;;;;;;5000723;28;20105;-53
2022/12/02 10:59:30;;;;;;;56.47;30.38;;;1.90;99.90;;;;;;5012626;28;20563;-54
2022/12/02 11:02:22;;;;;;;57.47;30.35;;;2.00;99.90;;;;;;4984761;28;20104;-56
2022/12/02 11:05:32;;;;;;;57.90;30.60;;;2.00;99.90;;;;;;5012271;28;20069;-53
2022/12/02 11:08:23;;;;;;;55.35;29.13;;;2.00;99.90;;;;;;4994505;28;20113;-58
2022/12/02 11:11:37;;;;;;;60.70;32.00;;;1.90;99.90;;;;;;5012076;28;20109;-57
2022/12/02 11:14:41;;;;;;;56.28;29.27;;;2.00;99.90;;;;;;5000129;28;20397;-56
2022/12/02 11:17:49;;;;;;;50.42;26.80;;;1.90;99.90;;;;;;5014387;28;20033;-58
2022/12/02 11:20:40;;;;;;;55.80;29.83;;;2.00;99.90;;;;;;4987248;28;20026;-56
2022/12/02 11:23:29;;;;;;;54.38;29.70;;;1.80;99.90;;;;;;4994781;28;20495;-60
2022/12/02 11:26:16;;;;;;;54.47;30.50;;;1.80;99.90;;;;;;4971126;28;20045;-59
2022/12/02 11:29:16;;;;;;;55.45;28.98;;;1.80;99.90;;;;;;5009921;28;20394;-60
2022/12/02 11:32:41;;;;;;;55.97;29.88;;;1.80;99.90;;;;;;4977630;28;20029;-57
2022/12/02 11:36:18;;;;;;;54.00;28.80;;;1.80;99.90;;;;;;5011534;28;20025;-58
2022/12/02 11:42:29;;;;;;;52.90;30.15;;;1.70;99.90;;;;;;4996062;28;20022;-58
2022/12/02 11:46:17;;;;;;;55.03;28.55;;;1.80;99.90;;;;;;4995159;28;20022;-56
2022/12/02 11:49:18;;;;;;;53.22;30.05;;;1.70;99.90;;;;;;5010674;28;20100;-59
2022/12/02 11:52:41;;;;;;;54.80;29.20;;;1.70;99.90;;;;;;5012718;28;20033;-54
2022/12/02 11:55:56;;;;;;;58.03;29.52;;;1.70;99.90;;;;;;5008206;28;20030;-58
2022/12/02 11:58:47;;;;;;;54.35;29.75;;;1.70;99.90;;;;;;5010222;28;20513;-59
2022/12/02 12:01:33;;;;;;;58.22;29.20;;;1.70;99.90;;;;;;4998425;28;20022;-59
2022/12/02 12:04:29;;;;;;;55.53;29.75;;;1.60;99.90;;;;;;5012382;28;20101;-59
2022/12/02 12:07:14;;;;;;;;;;;1.60;99.90;;;;;;5009949;28;20613;-57
2022/12/02 12:10:00;;;;;;;56.53;29.23;;;1.60;99.90;;;;;;5011910;28;20393;-58
2022/12/02 12:13:12;;;;;;;61.92;30.40;;;1.60;99.90;;;;;;5013408;28;20050;-59
2022/12/02 12:16:00;;;;;;;62.42;30.52;;;1.70;99.90;;;;;;4993676;28;20030;-57
2022/12/02 12:18:47;;;;;;;60.90;31.58;;;1.70;99.90;;;;;;5004516;28;20073;-55
2022/12/02 12:21:34;;;;;;;62.58;31.80;;;1.70;99.90;;;;;;5007473;28;20030;-60
2022/12/02 12:24:22;;;;;;;67.20;33.75;;;1.70;99.90;;;;;;4980654;28;20038;-55
2022/12/02 12:27:11;;;;;;;61.38;31.45;;;1.70;99.90;;;;;;5001336;28;20037;-59
2022/12/02 12:29:57;;;;;;;70.15;32.03;;;1.70;99.90;;;;;;4989332;28;20030;-57
2022/12/02 12:32:43;;;;;;;74.40;34.35;;;1.70;99.90;;;;;;4981364;28;20430;-57
2022/12/02 12:35:29;;;;;;;69.57;34.97;;;1.70;99.90;;;;;;5008744;28;20430;-58
2022/12/02 12:38:14;;;;;;;67.97;34.05;;;1.60;99.90;;;;;;5005563;28;20506;-61
2022/12/02 12:41:00;;;;;;;71.63;33.92;;;1.60;99.90;;;;;;4997505;28;20037;-58
2022/12/02 12:43:46;;;;;;;73.93;34.92;;;1.70;99.90;;;;;;5007319;28;20410;-61
2022/12/02 12:46:32;;;;;;;75.93;35.35;;;1.70;99.90;;;;;;5009594;28;20022;-59
2022/12/02 12:49:18;;;;;;;71.72;34.58;;;1.70;99.90;;;;;;5007692;28;20018;-59
2022/12/02 12:52:04;;;;;;;81.80;36.80;;;1.60;99.90;;;;;;5009569;28;20483;-56
2022/12/02 12:54:50;;;;;;;82.50;38.05;;;1.60;99.90;;;;;;5009835;28;20030;-57
2022/12/02 12:57:36;;;;;;;79.70;33.92;;;1.60;99.90;;;;;;4984606;28;20422;-58
2022/12/02 13:00:22;;;;;;;83.68;36.38;;;1.60;99.90;;;;;;5005266;28;20018;-57
2022/12/02 13:03:09;;;;;;;79.63;36.55;;;1.60;99.90;;;;;;4999686;28;20218;-57
2022/12/02 13:05:54;;;;;;;79.40;34.65;;;1.50;99.90;;;;;;5009761;28;20026;-56
2022/12/02 13:08:40;;;;;;;85.68;36.58;;;1.60;99.90;;;;;;5007064;28;20026;-59
2022/12/02 13:11:26;;;;;;;77.28;34.28;;;1.60;99.90;;;;;;4977721;28;20037;-60
2022/12/02 13:14:12;;;;;;;86.97;35.13;;;1.60;99.90;;;;;;5008975;28;20106;-61
2022/12/02 13:16:59;;;;;;;82.95;35.85;;;1.60;99.90;;;;;;5001487;28;20022;-60
2022/12/02 13:19:45;;;;;;;86.15;36.35;;;1.60;99.90;;;;;;5001601;28;20034;-59
2022/12/02 13:22:31;;;;;;;90.53;37.40;;;1.70;99.90;;;;;;4993083;28;20048;-60
2022/12/02 13:25:17;;;;;;;86.55;36.45;;;1.70;99.90;;;;;;5012312;28;20120;-60
2022/12/02 13:28:03;;;;;;;78.00;36.70;;;1.70;99.90;;;;;;5014339;28;20034;-58
2022/12/02 13:30:50;;;;;;;75.10;35.30;;;1.70;99.90;;;;;;4985395;28;20037;-62
2022/12/02 13:33:36;;;;;;;85.07;36.58;;;1.70;99.90;;;;;;4993783;28;20033;-61
2022/12/02 13:36:22;;;;;;;88.88;37.67;;;1.60;99.90;;;;;;5009659;28;20030;-63
2022/12/02 13:39:12;;;;;;;85.03;35.83;;;1.60;99.90;;;;;;5012760;28;20030;-61
2022/12/02 13:41:58;;;;;;;86.63;36.85;;;1.50;99.90;;;;;;5007787;28;20026;-57
2022/12/02 13:44:44;;;;;;;85.50;37.58;;;1.50;99.90;;;;;;5004593;28;20046;-57
2022/12/02 13:47:29;;;;;;;80.82;35.10;;;1.50;99.90;;;;;;5004833;28;20029;-56
2022/12/02 13:50:15;;;;;;;87.25;36.10;;;1.50;99.90;;;;;;5011065;28;20030;-58
2022/12/02 13:53:01;;;;;;;76.45;34.10;;;1.50;99.90;;;;;;4978328;28;20019;-55
2022/12/02 13:55:47;;;;;;;82.80;34.40;;;1.50;99.90;;;;;;4991523;28;20030;-59
2022/12/02 13:58:33;;;;;;;82.90;35.72;;;1.50;99.90;;;;;;4990165;28;20022;-58
2022/12/02 14:01:19;;;;;;;77.07;32.22;;;1.50;99.90;;;;;;5002265;28;20109;-58
2022/12/02 14:04:05;;;;;;;79.70;32.20;;;1.50;99.90;;;;;;5011809;28;20104;-59
2022/12/02 14:06:51;;;;;;;82.68;33.85;;;1.50;99.90;;;;;;5013884;28;20025;-55
2022/12/02 14:09:37;;;;;;;73.00;30.70;;;1.50;99.90;;;;;;4997264;28;20038;-59
2022/12/02 14:12:23;;;;;;;68.22;30.92;;;1.50;99.90;;;;;;5005413;28;20041;-62
2022/12/02 14:15:10;;;;;;;74.45;33.80;;;1.40;99.90;;;;;;5014994;28;20104;-60
2022/12/02 14:17:56;;;;;;;71.50;32.28;;;1.40;99.90;;;;;;5010826;28;20065;-60
2022/12/02 14:20:42;;;;;;;72.13;32.83;;;1.40;99.90;;;;;;5007715;28;20068;-58
2022/12/02 14:23:28;;;;;;;76.68;31.65;;;1.40;99.90;;;;;;5025452;28;20034;-60
2022/12/02 14:26:14;;;;;;;76.88;31.08;;;1.40;99.90;;;;;;5013100;28;20031;-58
2022/12/02 14:29:00;;;;;;;70.47;32.33;;;1.30;99.90;;;;;;5005805;28;20085;-59
2022/12/02 14:31:46;;;;;;;76.38;31.23;;;1.40;99.90;;;;;;4997458;28;20061;-61
2022/12/02 14:34:31;;;;;;;74.95;30.20;;;1.40;99.90;;;;;;5004281;28;20031;-58
2022/12/02 14:37:17;;;;;;;74.07;31.90;;;1.40;99.90;;;;;;4980673;28;20101;-62
2022/12/02 14:40:06;;;;;;;66.57;29.73;;;1.40;99.90;;;;;;4994804;28;20026;-62
2022/12/02 14:42:52;;;;;;;75.03;29.33;;;1.40;99.90;;;;;;4995103;28;20034;-61
2022/12/02 14:45:38;;;;;;;72.20;29.50;;;1.30;99.90;;;;;;4986005;28;20037;-60
2022/12/02 14:48:24;;;;;;;75.55;31.02;;;1.30;99.90;;;;;;5006552;28;20066;-58
2022/12/02 14:51:10;;;;;;;73.82;31.50;;;1.30;99.90;;;;;;4998657;28;20042;-59
2022/12/02 14:53:56;;;;;;;76.85;30.20;;;1.30;99.90;;;;;;4996753;28;20082;-62
2022/12/02 14:56:42;;;;;;;78.32;32.20;;;1.30;99.90;;;;;;5010106;28;20066;-60
2022/12/02 14:59:28;;;;;;;71.53;30.15;;;1.40;99.90;;;;;;5004387;28;20030;-64
2022/12/02 15:02:14;;;;;;;74.07;29.90;;;1.30;99.90;;;;;;5004341;28;20034;-64
2022/12/02 15:05:00;;;;;;;67.18;28.50;;;1.40;99.90;;;;;;4984825;28;20619;-71
2022/12/02 15:07:46;;;;;;;65.82;27.75;;;1.40;99.90;;;;;;5012402;28;20073;-64
2022/12/02 15:10:32;;;;;;;66.97;29.30;;;1.40;99.90;;;;;;4992042;28;20033;-66
2022/12/02 15:13:18;;;;;;;73.38;30.60;;;1.30;99.90;;;;;;5006637;28;20110;-62
2022/12/02 15:16:05;;;;;;;65.45;29.25;;;1.30;99.90;;;;;;4991686;28;20030;-65
2022/12/02 15:18:51;;;;;;;63.08;28.10;;;1.30;99.90;;;;;;4986247;28;20080;-62
2022/12/02 15:21:37;;;;;;;60.33;25.50;;;1.30;99.90;;;;;;5013814;28;20033;-60
2022/12/02 15:24:23;;;;;;;66.50;27.45;;;1.30;99.90;;;;;;4999503;28;20121;-66
2022/12/02 15:27:09;;;;;;;64.35;27.52;;;1.30;99.90;;;;;;5012109;28;20057;-59
2022/12/02 15:29:55;;;;;;;63.80;26.35;;;1.30;99.90;;;;;;5013854;28;20478;-62
2022/12/02 15:32:41;;;;;;;62.33;27.33;;;1.30;99.90;;;;;;4978486;28;20023;-65
2022/12/02 15:35:27;;;;;;;59.78;29.05;;;1.40;99.90;;;;;;4981398;28;20069;-63
2022/12/02 15:38:13;;;;;;;59.88;28.70;;;1.30;99.90;;;;;;5013397;28;20380;-58
2022/12/02 15:40:59;;;;;;;67.10;28.42;;;1.30;99.90;;;;;;5014312;28;20081;-61
2022/12/02 15:43:45;;;;;;;69.95;30.00;;;1.30;99.90;;;;;;5013794;28;20041;-59
2022/12/02 15:46:31;;;;;;;70.50;30.92;;;1.20;99.90;;;;;;5011920;28;20483;-59
2022/12/02 15:49:17;;;;;;;78.70;34.88;;;1.20;99.90;;;;;;5010053;28;20450;-62
2022/12/02 15:52:03;;;;;;;77.95;32.13;;;1.20;99.90;;;;;;4996470;28;20434;-60
2022/12/02 15:54:49;;;;;;;72.50;30.20;;;1.30;99.90;;;;;;4998202;28;20108;-59
2022/12/02 15:57:35;;;;;;;76.00;32.22;;;1.30;99.90;;;;;;4999242;28;20101;-59
2022/12/02 16:00:21;;;;;;;73.72;31.95;;;1.20;99.90;;;;;;4998367;28;20060;-57
2022/12/02 16:03:07;;;;;;;66.13;32.38;;;1.30;99.90;;;;;;5012801;28;20101;-58
2022/12/02 16:05:54;;;;;;;69.25;31.00;;;1.20;99.90;;;;;;5001138;28;20030;-59
2022/12/02 16:08:40;;;;;;;67.65;31.63;;;1.20;99.90;;;;;;5013810;28;20033;-58
2022/12/02 16:11:26;;;;;;;65.65;31.73;;;1.20;99.90;;;;;;5012744;28;20052;-60
2022/12/02 16:14:12;;;;;;;70.88;31.80;;;1.20;99.90;;;;;;5013343;28;20022;-62
2022/12/02 16:16:58;;;;;;;62.95;28.90;;;1.20;99.90;;;;;;4999038;28;20088;-60
2022/12/02 16:19:44;;;;;;;70.93;29.33;;;1.20;99.90;;;;;;5013885;28;20541;-60
2022/12/02 16:22:30;;;;;;;67.20;29.75;;;1.20;99.90;;;;;;5013203;28;20048;-56
2022/12/02 16:25:16;;;;;;;67.47;27.80;;;1.20;99.90;;;;;;5004905;28;20038;-62
2022/12/02 16:28:02;;;;;;;70.63;31.25;;;1.30;99.90;;;;;;5013658;28;20041;-62
2022/12/02 16:30:48;;;;;;;64.85;29.67;;;1.30;99.90;;;;;;5011993;28;20073;-61
2022/12/02 16:33:37;;;;;;;64.60;30.13;;;1.20;99.90;;;;;;4994421;28;20081;-62
2022/12/02 16:36:23;;;;;;;65.47;29.05;;;1.20;99.90;;;;;;4994151;28;20026;-61
2022/12/02 16:39:09;;;;;;;63.13;29.38;;;1.20;99.90;;;;;;5005753;28;20084;-61
2022/12/02 16:41:55;;;;;;;58.55;29.55;;;1.30;99.90;;;;;;5011451;28;20525;-63
2022/12/02 16:44:41;;;;;;;63.83;28.52;;;1.30;99.90;;;;;;5012379;28;20235;-62
2022/12/02 16:47:27;;;;;;;63.65;29.77;;;1.40;99.90;;;;;;4999187;28;20109;-61
2022/12/02 16:50:15;;;;;;;59.40;29.42;;;1.40;99.90;;;;;;5013834;28;20042;-62
2022/12/02 16:53:01;;;;;;;66.70;29.85;;;1.40;99.90;;;;;;5012532;28;20026;-62
2022/12/02 16:55:47;;;;;;;57.58;29.15;;;1.30;99.90;;;;;;5011546;28;20556;-61
2022/12/02 16:58:35;;;;;;;63.45;28.40;;;1.30;99.90;;;;;;4989310;28;20038;-63
2022/12/02 17:01:21;;;;;;;56.25;28.10;;;1.30;99.90;;;;;;5006571;28;20026;-59
2022/12/02 17:04:07;;;;;;;53.20;26.33;;;1.20;99.90;;;;;;4992901;28;20034;-61
2022/12/02 17:06:53;;;;;;;59.10;27.50;;;1.20;99.90;;;;;;5013515;28;20034;-60
2022/12/02 17:09:39;;;;;;;56.50;28.10;;;1.20;99.90;;;;;;5012141;28;20116;-62
2022/12/02 17:12:27;;;;;;;57.78;28.40;;;1.20;99.90;;;;;;4999133;28;20533;-60
2022/12/02 17:15:13;;;;;;;59.25;27.27;;;1.30;99.90;;;;;;4984846;28;20114;-58
2022/12/02 17:17:59;;;;;;;56.55;28.27;;;1.20;99.90;;;;;;5015992;28;20030;-59
2022/12/02 17:20:45;;;;;;;58.30;27.42;;;1.20;99.90;;;;;;5000603;28;20029;-59
2022/12/02 17:23:31;;;;;;;57.30;27.80;;;1.20;99.90;;;;;;4984688;28;20069;-63
2022/12/02 17:26:17;;;;;;;54.60;25.67;;;1.20;99.90;;;;;;4999542;28;20033;-63
2022/12/02 17:29:03;;;;;;;57.97;27.83;;;1.20;99.90;;;;;;4984098;28;20026;-62
2022/12/02 17:31:49;;;;;;;58.03;29.35;;;1.20;99.90;;;;;;4997424;28;20080;-60
2022/12/02 17:34:35;;;;;;;58.55;28.52;;;1.30;99.90;;;;;;4998735;28;20030;-63
2022/12/02 17:37:21;;;;;;;52.58;26.70;;;1.30;99.90;;;;;;4998331;28;20042;-63
2022/12/02 17:40:07;;;;;;;50.67;25.85;;;1.20;99.90;;;;;;4998244;28;20442;-63
2022/12/02 17:42:53;;;;;;;52.80;25.70;;;1.30;99.90;;;;;;4999101;28;20034;-62
2022/12/02 17:45:39;;;;;;;52.17;23.55;;;1.20;99.90;;;;;;4998468;28;20033;-60
2022/12/02 17:48:25;;;;;;;52.15;24.10;;;1.30;99.90;;;;;;5012462;28;20032;-61
2022/12/02 17:51:15;;;;;;;52.88;25.60;;;1.20;99.90;;;;;;4999919;28;20099;-61
2022/12/02 17:54:01;;;;;;;52.17;24.00;;;1.10;99.90;;;;;;5001518;28;20108;-62
2022/12/02 17:56:47;;;;;;;50.65;23.83;;;1.20;99.90;;;;;;4987624;28;20053;-60
2022/12/02 17:59:33;;;;;;;49.38;24.65;;;1.20;99.90;;;;;;4980287;28;20115;-61
2022/12/02 18:02:19;;;;;;;49.08;25.10;;;1.20;99.90;;;;;;4991826;28;20038;-62
2022/12/02 18:05:05;;;;;;;49.80;24.08;;;1.20;99.90;;;;;;5007720;28;20085;-61
2022/12/02 18:07:51;;;;;;;47.63;23.45;;;1.20;99.90;;;;;;5007418;28;20037;-61
2022/12/02 18:10:37;;;;;;;49.08;23.35;;;1.20;99.90;;;;;;5021900;28;20022;-63
2022/12/02 18:13:22;;;;;;;48.33;23.23;;;1.10;99.90;;;;;;5008636;28;20091;-60
2022/12/02 18:16:09;;;;;;;54.08;23.58;;;1.20;99.90;;;;;;5021938;28;20525;-62
2022/12/02 18:18:58;;;;;;;48.53;23.13;;;1.20;99.90;;;;;;5020734;28;20029;-56
2022/12/02 18:21:44;;;;;;;51.50;24.15;;;1.20;99.90;;;;;;5019573;28;20045;-62
2022/12/02 18:24:30;;;;;;;48.78;23.42;;;1.20;99.90;;;;;;5012445;28;20030;-62
2022/12/02 18:27:16;;;;;;;51.72;24.58;;;1.10;99.90;;;;;;4992841;28;20093;-62
2022/12/02 18:30:02;;;;;;;53.35;22.73;;;1.10;99.90;;;;;;4998281;28;20026;-63
2022/12/02 18:32:48;;;;;;;49.58;24.15;;;1.10;99.90;;;;;;5012120;28;20028;-62
2022/12/02 18:35:34;;;;;;;51.95;24.73;;;1.10;99.90;;;;;;5010206;28;20033;-63
2022/12/02 18:38:20;;;;;;;54.22;26.05;;;1.10;99.90;;;;;;5011312;28;20105;-62
2022/12/02 18:41:06;;;;;;;59.72;28.70;;;1.10;99.90;;;;;;5009891;28;20045;-62
2022/12/02 18:43:52;;;;;;;65.15;29.40;;;1.10;99.90;;;;;;4986060;28;20062;-64
2022/12/02 18:46:38;;;;;;;67.43;30.75;;;1.00;99.90;;;;;;5004484;28;20117;-63
2022/12/02 18:49:24;;;;;;;66.57;31.23;;;1.10;99.90;;;;;;4984656;28;20057;-62
2022/12/02 18:52:10;;;;;;;65.50;29.52;;;1.10;99.90;;;;;;5006875;28;20486;-62
2022/12/02 18:54:56;;;;;;;65.93;30.88;;;1.00;99.90;;;;;;4995325;28;20030;-62
2022/12/02 18:57:42;;;;;;;61.22;31.38;;;1.10;99.90;;;;;;4996176;28;20045;-61
2022/12/02 19:00:28;;;;;;;61.60;31.88;;;1.00;99.90;;;;;;5012310;28;20041;-61
2022/12/02 19:03:14;;;;;;;64.35;31.02;;;1.00;99.90;;;;;;5013837;28;20026;-63
2022/12/02 19:06:00;;;;;;;64.75;31.92;;;1.00;99.90;;;;;;4998177;28;20534;-61
2022/12/02 19:08:46;;;;;;;65.03;32.30;;;1.00;99.90;;;;;;5011556;28;20038;-61
2022/12/02 19:11:32;;;;;;;62.53;32.67;;;1.00;99.90;;;;;;4996065;28;20049;-62
2022/12/02 19:14:18;;;;;;;70.97;31.60;;;1.00;99.90;;;;;;5006991;28;20490;-62
2022/12/02 19:17:04;;;;;;;59.47;29.65;;;1.00;99.90;;;;;;4997097;28;20065;-60
2022/12/02 19:19:57;;;;;;;60.95;30.45;;;1.00;99.90;;;;;;5007890;28;20068;-60
2022/12/02 19:22:43;;;;;;;58.22;30.58;;;0.90;99.90;;;;;;5004049;28;20201;-58
2022/12/02 19:25:30;;;;;;;57.22;29.45;;;1.00;99.90;;;;;;5012886;28;20502;-59
2022/12/02 19:28:16;;;;;;;61.50;31.48;;;1.10;99.90;;;;;;5013944;28;20033;-60
2022/12/02 19:31:02;;;;;;;59.83;29.67;;;1.00;99.90;;;;;;4974015;28;20038;-60
2022/12/02 19:33:48;;;;;;;57.60;29.63;;;1.00;99.90;;;;;;5014665;28;20061;-58
2022/12/02 19:36:34;;;;;;;57.22;29.30;;;1.00;99.90;;;;;;5015107;28;20574;-58
2022/12/02 19:39:20;;;;;;;56.92;30.45;;;1.00;99.90;;;;;;5001186;28;20037;-58
2022/12/02 19:42:07;;;;;;;56.28;29.67;;;1.00;99.90;;;;;;4999434;28;20026;-61
2022/12/02 19:44:53;;;;;;;61.90;32.55;;;0.90;99.90;;;;;;5014999;28;20026;-60
2022/12/02 19:47:39;;;;;;;62.55;30.98;;;0.90;99.90;;;;;;5014466;28;20034;-61
2022/12/02 19:50:25;;;;;;;61.00;31.70;;;0.90;99.90;;;;;;5010800;28;20103;-59
2022/12/02 19:53:11;;;;;;;62.22;32.70;;;0.90;99.90;;;;;;5011374;28;20073;-59
2022/12/02 19:55:57;;;;;;;68.20;31.88;;;0.90;99.90;;;;;;4997083;28;20022;-62
2022/12/02 19:58:43;;;;;;;62.95;30.85;;;0.90;99.90;;;;;;5001091;28;20037;-58
2022/12/02 20:01:29;;;;;;;65.50;33.35;;;0.90;99.90;;;;;;4985604;28;20030;-57
2022/12/02 20:04:15;;;;;;;63.03;32.35;;;0.80;99.90;;;;;;4984371;28;20053;-60
2022/12/02 20:07:01;;;;;;;66.80;34.58;;;0.80;99.90;;;;;;5011400;28;20026;-61
2022/12/02 20:09:46;;;;;;;65.50;33.42;;;0.80;99.90;;;;;;4983621;28;20117;-60
2022/12/02 20:12:32;;;;;;;69.00;33.30;;;0.80;99.90;;;;;;5012069;28;20029;-63
2022/12/02 20:15:18;;;;;;;73.43;34.72;;;0.80;99.90;;;;;;5006893;28;20087;-63
2022/12/02 20:18:04;;;;;;;71.57;34.13;;;1.30;99.90;;;;;;5014469;28;20092;-64
2022/12/02 20:20:50;;;;;;;69.95;34.22;;;1.20;99.90;;;;;;5014776;28;20108;-61
2022/12/02 20:23:36;;;;;;;63.47;33.38;;;1.20;99.90;;;;;;5008404;28;20096;-61
2022/12/02 20:26:22;;;;;;;76.43;36.60;;;1.10;99.90;;;;;;4987325;28;20027;-64
2022/12/02 20:29:08;;;;;;;72.88;34.22;;;0.90;99.90;;;;;;5011045;28;20533;-62
2022/12/02 20:31:54;;;;;;;72.05;35.13;;;1.00;99.90;;;;;;5007300;28;20026;-61
2022/12/02 20:34:43;;;;;;;67.30;34.83;;;0.90;99.90;;;;;;5010824;28;20037;-64
2022/12/02 20:37:29;;;;;;;72.53;34.85;;;0.90;99.90;;;;;;5010769;28;20033;-62
2022/12/02 20:40:17;;;;;;;71.68;33.70;;;0.80;99.90;;;;;;5011225;28;20554;-61
2022/12/02 20:43:03;;;;;;;74.10;36.40;;;0.80;99.90;;;;;;5011294;28;20446;-61
2022/12/02 20:45:49;;;;;;;72.65;35.00;;;0.80;99.90;;;;;;5010105;28;20026;-61
2022/12/02 20:48:35;;;;;;;76.88;35.90;;;0.80;99.90;;;;;;5009252;28;20339;-61
2022/12/02 20:51:21;;;;;;;75.70;34.58;;;0.70;99.90;;;;;;4998041;28;20044;-63
2022/12/02 20:54:11;;;;;;;77.78;35.90;;;0.70;99.90;;;;;;5009455;28;20022;-61
2022/12/02 20:56:57;;;;;;;77.97;36.72;;;0.70;99.90;;;;;;4982583;28;20491;-62
2022/12/02 20:59:43;;;;;;;79.15;35.55;;;0.70;99.90;;;;;;5012186;28;20033;-61
2022/12/02 21:02:29;;;;;;;76.22;35.35;;;0.70;99.90;;;;;;5009848;28;20038;-57
2022/12/02 21:05:15;;;;;;;67.95;35.05;;;0.70;99.90;;;;;;5010720;28;20041;-60
2022/12/02 21:08:01;;;;;;;71.75;33.63;;;0.70;99.90;;;;;;5008888;28;20084;-60
2022/12/02 21:10:50;;;;;;;71.53;35.92;;;0.70;99.90;;;;;;5007680;28;20037;-60
2022/12/02 21:13:35;;;;;;;85.43;37.08;;;0.70;99.90;;;;;;5008878;28;20061;-57
2022/12/02 21:16:21;;;;;;;73.18;36.08;;;0.70;99.90;;;;;;4995923;28;20034;-55
2022/12/02 21:19:08;;;;;;;70.10;33.95;;;0.70;99.90;;;;;;4993980;28;20394;-61
2022/12/02 21:21:54;;;;;;;73.38;37.00;;;0.70;99.90;;;;;;5009962;28;20021;-58
2022/12/02 21:24:40;;;;;;;77.82;35.85;;;0.80;99.90;;;;;;5009017;28;20105;-58
2022/12/02 21:27:25;;;;;;;71.30;34.33;;;0.70;99.90;;;;;;5010499;28;20446;-58
2022/12/02 21:30:12;;;;;;;76.50;35.03;;;0.70;99.90;;;;;;4993594;28;20038;-60
2022/12/02 21:32:58;;;;;;;76.32;36.63;;;0.70;99.90;;;;;;5009858;28;20061;-56
2022/12/02 21:35:44;;;;;;;77.05;39.88;;;0.70;99.90;;;;;;5011594;28;20022;-62
2022/12/02 21:38:30;;;;;;;76.75;35.45;;;0.70;99.90;;;;;;4994899;28;20030;-62
2022/12/02 21:41:16;;;;;;;78.32;37.05;;;0.70;99.90;;;;;;4994694;28;20026;-58
2022/12/02 21:44:03;;;;;;;81.68;37.60;;;0.70;99.90;;;;;;5009998;28;20032;-58
2022/12/02 21:46:49;;;;;;;82.05;37.50;;;0.70;99.90;;;;;;4990839;28;20102;-56
2022/12/02 21:49:35;;;;;;;78.22;37.03;;;0.70;99.90;;;;;;4993771;28;20563;-58
2022/12/02 21:52:21;;;;;;;77.90;37.75;;;0.70;99.90;;;;;;5010828;28;20060;-59
2022/12/02 21:55:08;;;;;;;79.53;37.70;;;0.60;99.90;;;;;;4993815;28;20022;-57
2022/12/02 21:57:54;;;;;;;81.53;37.08;;;0.60;99.90;;;;;;4995519;28;20021;-59
2022/12/02 22:00:39;;;;;;;86.90;40.45;;;0.50;99.90;;;;;;5008372;28;20022;-61
2022/12/02 22:03:25;;;;;;;74.20;34.35;;;0.60;99.90;;;;;;5008498;28;20022;-62
2022/12/02 22:06:11;;;;;;;78.50;35.50;;;0.70;99.90;;;;;;5010628;28;20030;-62
2022/12/02 22:08:57;;;;;;;75.88;35.53;;;0.60;99.90;;;;;;4995503;28;20030;-61
2022/12/02 22:11:45;;;;;;;76.85;36.53;;;0.70;99.90;;;;;;5009186;28;20387;-60
2022/12/02 22:14:31;;;;;;;81.38;37.33;;;0.70;99.90;;;;;;4986365;28;20494;-58
2022/12/02 22:17:20;;;;;;;78.43;36.70;;;0.70;99.90;;;;;;5010599;28;20042;-59
2022/12/02 22:20:07;;;;;;;80.90;35.78;;;0.70;99.90;;;;;;5010889;28;20518;-61
2022/12/02 22:22:53;;;;;;;83.03;38.08;;;0.70;99.90;;;;;;5012228;28;20089;-61
2022/12/02 22:25:39;;;;;;;77.20;34.97;;;0.70;99.90;;;;;;5011196;28;20473;-59
2022/12/02 22:28:25;;;;;;;86.10;37.25;;;0.70;99.90;;;;;;5012073;28;20041;-58
2022/12/02 22:31:11;;;;;;;87.65;38.78;;;0.60;99.90;;;;;;5014922;28;20041;-59
2022/12/02 22:33:57;;;;;;;85.80;38.72;;;0.60;99.90;;;;;;5013047;28;20083;-60
2022/12/02 22:36:43;;;;;;;80.20;37.85;;;0.60;99.90;;;;;;4981918;28;20031;-61
2022/12/02 22:39:29;;;;;;;81.00;36.58;;;0.60;99.90;;;;;;5003120;28;20033;-60
2022/12/02 22:42:14;;;;;;;84.95;36.85;;;0.60;99.90;;;;;;5013173;28;20025;-62
2022/12/02 22:45:00;;;;;;;88.05;37.58;;;0.60;99.90;;;;;;4995679;28;20031;-60
2022/12/02 22:47:46;;;;;;;89.15;38.33;;;0.50;99.90;;;;;;4970709;28;20033;-57
2022/12/02 22:50:32;;;;;;;87.45;36.78;;;0.60;99.90;;;;;;5013551;28;20529;-60
2022/12/02 22:53:18;;;;;;;81.72;37.35;;;0.50;99.90;;;;;;5014405;28;20061;-62
2022/12/02 22:56:04;;;;;;;82.43;38.80;;;0.60;99.90;;;;;;5000400;28;20026;-62
2022/12/02 22:58:50;;;;;;;85.85;40.20;;;0.60;99.90;;;;;;5016686;28;20034;-61
2022/12/02 23:01:36;;;;;;;85.32;37.70;;;0.50;99.90;;;;;;5010099;28;20030;-63
2022/12/02 23:04:22;;;;;;;86.25;38.03;;;0.60;99.90;;;;;;5002848;28;20035;-61
2022/12/02 23:07:08;;;;;;;81.93;37.97;;;0.50;99.90;;;;;;4999678;28;20145;-59
2022/12/02 23:09:54;;;;;;;82.80;38.10;;;0.50;99.90;;;;;;5014310;28;20125;-61
2022/12/02 23:12:40;;;;;;;82.72;35.42;;;0.50;99.90;;;;;;4999855;28;20037;-60
2022/12/02 23:15:26;;;;;;;81.35;36.95;;;0.50;99.90;;;;;;5013939;28;20100;-64
2022/12/02 23:18:12;;;;;;;86.55;35.47;;;0.50;99.90;;;;;;4992778;28;20027;-60
2022/12/02 23:20:58;;;;;;;87.25;37.45;;;0.50;99.90;;;;;;5000624;28;20029;-59
2022/12/02 23:23:44;;;;;;;86.15;36.88;;;0.40;99.90;;;;;;5001031;28;20050;-62
2022/12/02 23:26:30;;;;;;;79.70;37.83;;;0.50;99.90;;;;;;5015108;28;20045;-58
2022/12/02 23:29:15;;;;;;;81.72;36.55;;;0.50;99.90;;;;;;5015846;28;20068;-61
2022/12/02 23:32:02;;;;;;;83.53;36.22;;;0.40;99.90;;;;;;5000481;28;20489;-60
2022/12/02 23:34:47;;;;;;;87.75;36.60;;;0.40;99.90;;;;;;5013732;28;20049;-62
2022/12/02 23:37:33;;;;;;;87.65;39.03;;;0.50;99.90;;;;;;4985822;28;20022;-62